Time;durP1;ratioP1;P1;durP2;ratioP2;P2;SDS_P1;SDS_P2;PMS_P1;PMS_P2;Temp;Humidity;BMP_temperature;BMP_pressure;BME280_temperature;BME280_humidity;BME280_pressure;Samples;Min_cycle;Max_cycle;Signal;HPM_P1;HPM_P2
2020/12/27 00:00:30;;;;;;;8.10;5.60;;;;;;;-5.46;98.72;95773.84;1025042;28;20107;-73
2020/12/27 00:01:00;;;;;;;8.63;5.10;;;;;;;-5.46;98.69;95771.28;1028737;28;20030;-71
2020/12/27 00:01:31;;;;;;;9.77;5.00;;;;;;;-5.49;98.67;95771.59;1030289;28;20026;-69
2020/12/27 00:02:11;;;;;;;7.00;4.70;;;;;;;-5.50;98.77;95761.53;1034240;28;20476;-68
2020/12/27 00:02:41;;;;;;;7.55;4.80;;;;;;;-5.49;98.65;95768.25;1022516;29;20077;-69
2020/12/27 00:03:12;;;;;;;8.97;5.53;;;;;;;-5.49;99.00;95769.06;1021573;29;20086;-69
2020/12/27 00:03:42;;;;;;;8.80;5.40;;;;;;;-5.50;98.86;95767.47;1025261;28;20033;-72
2020/12/27 00:04:12;;;;;;;7.17;4.90;;;;;;;-5.52;98.78;95761.69;1027215;28;20054;-69
2020/12/27 00:04:43;;;;;;;8.67;4.80;;;;;;;-5.57;98.43;95756.25;1029715;28;20373;-68
2020/12/27 00:05:15;;;;;;;7.00;5.47;;;;;;;-5.52;98.46;95764.25;1022386;28;20047;-68
2020/12/27 00:05:45;;;;;;;6.78;5.05;;;;;;;-5.52;98.65;95759.16;1022482;28;20126;-68
2020/12/27 00:06:16;;;;;;;7.73;4.87;;;;;;;-5.46;98.48;95766.16;1022765;29;20567;-72
2020/12/27 00:06:46;;;;;;;7.67;4.87;;;;;;;-5.46;98.77;95766.16;1022973;29;20034;-71
2020/12/27 00:07:17;;;;;;;8.37;5.00;;;;;;;-5.55;98.38;95743.34;1019956;29;20050;-68
2020/12/27 00:07:48;;;;;;;8.10;4.93;;;;;;;-5.47;98.75;95756.88;1022825;28;20024;-68
2020/12/27 00:08:18;;;;;;;9.43;5.47;;;;;;;-5.47;98.46;95764.56;1022638;29;20039;-71
2020/12/27 00:08:49;;;;;;;8.33;4.83;;;;;;;-5.47;98.46;95764.56;1018476;29;20260;-71
2020/12/27 00:09:19;;;;;;;8.07;5.23;;;;;;;-5.48;98.53;95760.41;1020565;29;20104;-70
2020/12/27 00:09:50;;;;;;;8.30;4.93;;;;;;;-5.50;98.26;95764.91;1023162;28;20624;-70
2020/12/27 00:10:20;;;;;;;9.07;6.07;;;;;;;-5.52;98.10;95764.25;1030995;28;20523;-71
2020/12/27 00:10:51;;;;;;;9.37;6.10;;;;;;;-5.50;98.00;95764.09;1026569;28;20023;-70
2020/12/27 00:11:21;;;;;;;9.93;5.57;;;;;;;-5.55;97.87;95754.34;1022531;29;20092;-70
2020/12/27 00:11:52;;;;;;;9.60;5.40;;;;;;;-5.48;98.00;95768.09;1019039;29;20082;-71
2020/12/27 00:12:23;;;;;;;8.48;5.68;;;;;;;-5.50;98.06;95762.34;1018895;29;20039;-67
2020/12/27 00:12:53;;;;;;;7.70;4.90;;;;;;;-5.51;98.07;95755.63;1026805;28;20038;-72
2020/12/27 00:13:24;;;;;;;7.93;5.07;;;;;;;-5.48;97.90;95754.50;1026714;28;20031;-71
2020/12/27 00:13:54;;;;;;;10.57;5.87;;;;;;;-5.50;97.94;95748.75;1025011;28;20019;-70
2020/12/27 00:14:25;;;;;;;10.10;5.63;;;;;;;-5.61;98.00;95729.44;1020379;28;20027;-68
2020/12/27 00:14:55;;;;;;;9.40;5.33;;;;;;;-5.49;98.16;95752.91;1019066;29;20110;-68
2020/12/27 00:15:26;;;;;;;11.53;6.47;;;;;;;-5.50;98.11;95757.25;1017662;29;20544;-70
2020/12/27 00:15:56;;;;;;;8.17;5.50;;;;;;;-5.49;97.94;95742.69;1019555;28;20429;-75
2020/12/27 00:16:27;;;;;;;7.53;5.37;;;;;;;-5.53;98.10;95739.66;1023060;28;20483;-69
2020/12/27 00:17:14;;;;;;;8.87;5.60;;;;;;;-5.54;97.93;95738.06;1026938;28;20677;-69
2020/12/27 00:17:45;;;;;;;9.60;5.47;;;;;;;-5.54;97.92;95740.59;1020374;29;20032;-69
2020/12/27 00:18:15;;;;;;;9.57;5.87;;;;;;;-5.53;98.15;95741.44;1022998;29;20043;-70
2020/12/27 00:18:46;;;;;;;8.07;4.87;;;;;;;-5.54;97.89;95739.81;1024553;28;20027;-69
2020/12/27 00:19:16;;;;;;;7.30;5.10;;;;;;;-5.57;97.96;95751.16;1023025;28;20046;-72
2020/12/27 00:19:47;;;;;;;9.33;5.07;;;;;;;-5.65;97.89;95733.28;1026720;28;20092;-71
2020/12/27 00:20:17;;;;;;;9.60;5.93;;;;;;;-5.68;97.79;95731.84;1022890;29;20035;-68
2020/12/27 00:20:48;;;;;;;8.40;5.30;;;;;;;-5.61;97.80;95744.78;1023187;28;20057;-68
2020/12/27 00:21:18;;;;;;;8.10;6.10;;;;;;;-5.59;97.87;95745.41;1023186;28;20641;-71
2020/12/27 00:21:49;;;;;;;9.93;5.87;;;;;;;-5.69;97.93;95732.03;1018825;29;20062;-71
2020/12/27 00:22:20;;;;;;;8.67;5.60;;;;;;;-5.66;97.95;95741.91;1018989;29;20733;-68
2020/12/27 00:22:51;;;;;;;7.72;5.38;;;;;;;-5.60;97.73;95745.56;1020594;28;20054;-71
2020/12/27 00:23:21;;;;;;;9.17;5.63;;;;;;;-5.62;97.99;95745.75;1022889;29;20038;-70
2020/12/27 00:23:52;;;;;;;7.67;5.27;;;;;;;-5.61;97.90;95734.56;1022725;29;20062;-68
2020/12/27 00:24:22;;;;;;;7.77;5.13;;;;;;;-5.63;97.77;95741.59;1019073;28;20494;-69
2020/12/27 00:24:53;;;;;;;7.23;5.37;;;;;;;-5.63;97.79;95740.78;1026911;28;20081;-69
2020/12/27 00:25:23;;;;;;;8.07;5.37;;;;;;;-5.73;97.53;95730.75;1022651;28;20036;-71
2020/12/27 00:25:54;;;;;;;7.97;5.27;;;;;;;-5.64;97.99;95737.44;1022630;28;20031;-68
2020/12/27 00:26:24;;;;;;;9.20;5.73;;;;;;;-5.65;97.89;95743.50;1017986;29;20024;-69
2020/12/27 00:26:55;;;;;;;10.90;6.40;;;;;;;-5.64;97.81;95739.19;1018815;29;20043;-71
2020/12/27 00:27:25;;;;;;;7.37;5.10;;;;;;;-5.61;98.06;95749.88;1014779;29;20063;-69
2020/12/27 00:27:56;;;;;;;11.87;6.23;;;;;;;-5.64;97.88;95742.53;1014885;29;20080;-70
2020/12/27 00:28:26;;;;;;;9.93;5.47;;;;;;;-5.62;97.89;95753.41;1018926;29;20028;-70
2020/12/27 00:28:57;;;;;;;11.67;5.30;;;;;;;-5.65;97.95;95746.06;1018180;28;20111;-71
2020/12/27 00:29:27;;;;;;;10.07;5.27;;;;;;;-5.68;97.78;95743.81;1026911;28;20023;-71
2020/12/27 00:29:58;;;;;;;8.50;5.77;;;;;;;-5.68;98.01;95746.38;1030496;28;20030;-67
2020/12/27 00:30:28;;;;;;;8.97;5.90;;;;;;;-5.64;98.15;95750.22;1026899;28;20638;-70
2020/12/27 00:30:59;;;;;;;7.97;5.50;;;;;;;-5.69;98.02;95745.59;1026402;28;20074;-68
2020/12/27 00:31:29;;;;;;;17.37;6.10;;;;;;;-5.73;98.10;95740.97;1022825;28;20102;-69
2020/12/27 00:32:00;;;;;;;9.43;6.17;;;;;;;-5.65;98.04;95755.50;1022749;29;20098;-70
2020/12/27 00:32:30;;;;;;;8.73;5.97;;;;;;;-5.62;98.07;95755.19;1018738;28;20019;-70
2020/12/27 00:33:01;;;;;;;10.77;5.90;;;;;;;-5.65;98.07;95750.38;1022718;29;20023;-68
2020/12/27 00:33:32;;;;;;;10.90;5.70;;;;;;;-5.65;98.19;95761.41;1023066;28;20031;-68
2020/12/27 00:34:02;;;;;;;10.83;6.10;;;;;;;-5.65;98.30;95758.84;1022479;28;20023;-71
2020/12/27 00:34:33;;;;;;;7.67;5.43;;;;;;;-5.70;98.26;95754.22;1026831;28;20027;-69
2020/12/27 00:35:04;;;;;;;11.40;6.93;;;;;;;-5.70;98.39;95766.19;1030839;28;20030;-70
2020/12/27 00:35:34;;;;;;;8.60;5.67;;;;;;;-5.70;98.57;95763.63;1027254;28;20053;-68
2020/12/27 00:36:05;;;;;;;11.40;6.47;;;;;;;-5.71;98.27;95759.47;1026026;28;20031;-73
2020/12/27 00:36:35;;;;;;;10.57;5.73;;;;;;;-5.72;98.33;95763.00;1022708;28;20429;-69
2020/12/27 00:37:05;;;;;;;10.60;6.13;;;;;;;-5.83;98.45;95742.91;1022847;28;20031;-69
2020/12/27 00:37:36;;;;;;;9.20;5.50;;;;;;;-5.77;98.35;95757.56;1026778;28;20035;-71
2020/12/27 00:38:06;;;;;;;10.30;5.80;;;;;;;-5.79;97.45;95759.50;1030448;28;20042;-71
2020/12/27 00:38:37;;;;;;;9.03;6.03;;;;;;;-5.84;97.75;95748.94;1034664;28;20033;-69
2020/12/27 00:39:07;;;;;;;14.83;6.73;;;;;;;-5.85;98.19;95747.34;1033737;28;20117;-71
2020/12/27 00:39:38;;;;;;;10.23;5.90;;;;;;;-5.88;98.21;95748.47;1025166;28;20034;-72
2020/12/27 00:40:08;;;;;;;9.60;6.13;;;;;;;-5.94;97.79;95737.16;1022823;29;20034;-68
2020/12/27 00:40:39;;;;;;;8.47;5.87;;;;;;;-5.88;98.02;95742.56;1022548;29;20042;-71
2020/12/27 00:41:09;;;;;;;10.10;6.17;;;;;;;-5.90;97.61;95744.47;1018677;28;20816;-71
2020/12/27 00:41:40;;;;;;;9.57;6.07;;;;;;;-6.01;97.97;95731.09;1025445;28;20046;-70
2020/12/27 00:42:10;;;;;;;14.87;6.40;;;;;;;-5.95;97.91;95737.34;1030770;28;20027;-69
2020/12/27 00:42:40;;;;;;;11.37;6.33;;;;;;;-5.95;97.95;95737.34;1026073;28;20035;-70
2020/12/27 00:43:11;;;;;;;11.30;6.27;;;;;;;-5.96;98.33;95739.09;1026785;28;20485;-68
2020/12/27 00:43:41;;;;;;;13.97;6.20;;;;;;;-5.97;98.48;95741.78;1022842;28;20019;-71
2020/12/27 00:44:12;;;;;;;8.80;5.63;;;;;;;-5.95;98.80;95742.44;1022540;28;20031;-69
2020/12/27 00:44:42;;;;;;;11.53;6.60;;;;;;;-5.98;98.90;95738.44;1020622;28;20481;-70
2020/12/27 00:45:13;;;;;;;10.73;5.97;;;;;;;-6.04;98.76;95731.41;1022520;29;20743;-72
2020/12/27 00:45:43;;;;;;;11.40;7.07;;;;;;;-5.99;99.05;95741.16;1022479;29;20074;-69
2020/12/27 00:46:14;;;;;;;9.90;6.33;;;;;;;-6.03;98.92;95729.69;1019687;28;20459;-72
2020/12/27 00:46:49;;;;;;;9.77;6.47;;;;;;;-5.99;99.09;95731.75;1023515;28;20043;-68
2020/12/27 00:47:20;;;;;;;11.60;6.32;;;;;;;-5.90;99.13;95739.38;1027499;28;20178;-68
2020/12/27 00:47:50;;;;;;;14.20;6.27;;;;;;;-5.90;99.14;95739.38;1020614;29;20032;-68
2020/12/27 00:48:21;;;;;;;11.77;6.87;;;;;;;-5.93;99.20;95736.22;1022478;28;20015;-69
2020/12/27 00:48:51;;;;;;;10.23;5.80;;;;;;;-5.94;98.94;95732.03;1022587;28;20062;-72
2020/12/27 00:49:22;;;;;;;9.77;6.00;;;;;;;-5.93;99.43;95733.66;1030392;28;20575;-70
2020/12/27 00:49:52;;;;;;;9.60;6.23;;;;;;;-5.99;99.05;95724.09;1038876;28;20017;-68
2020/12/27 00:50:23;;;;;;;11.27;5.70;;;;;;;-5.95;99.00;95722.00;1034687;28;20024;-70
2020/12/27 00:50:53;;;;;;;10.73;5.63;;;;;;;-5.93;99.20;95726.00;1030575;28;20030;-71
2020/12/27 00:51:25;;;;;;;8.33;5.50;;;;;;;-6.00;99.28;95703.78;1030027;28;20025;-69
2020/12/27 00:51:55;;;;;;;17.58;7.55;;;;;;;-5.90;99.43;95721.47;1026472;28;20019;-68
2020/12/27 00:52:25;;;;;;;11.23;5.93;;;;;;;-5.90;99.46;95713.81;1018968;29;20050;-69
2020/12/27 00:52:56;;;;;;;11.10;6.03;;;;;;;-5.90;99.13;95711.25;1021076;29;20038;-74
2020/12/27 00:53:27;;;;;;;11.53;5.67;;;;;;;-5.92;99.34;95709.69;1021143;28;20402;-70
2020/12/27 00:53:57;;;;;;;9.63;6.00;;;;;;;-6.01;99.35;95692.78;1026839;28;20025;-69
2020/12/27 00:54:28;;;;;;;11.37;6.23;;;;;;;-5.93;99.12;95705.56;1028600;28;20026;-68
2020/12/27 00:54:58;;;;;;;9.17;5.43;;;;;;;-5.92;98.93;95711.44;1026079;28;20030;-70
2020/12/27 00:55:29;;;;;;;9.93;6.37;;;;;;;-5.93;99.07;95708.13;1018648;29;20032;-73
2020/12/27 00:55:59;;;;;;;14.53;6.43;;;;;;;-5.93;99.17;95703.00;1018879;29;20062;-69
2020/12/27 00:56:29;;;;;;;8.33;5.57;;;;;;;-6.00;98.79;95699.50;1024322;28;20117;-68
2020/12/27 00:57:00;;;;;;;10.90;5.70;;;;;;;-6.16;98.89;95668.88;1026654;28;20089;-72
2020/12/27 00:57:30;;;;;;;9.83;6.50;;;;;;;-5.93;98.99;95705.56;1034849;28;20029;-68
2020/12/27 00:58:01;;;;;;;8.53;5.90;;;;;;;-5.99;98.93;95690.88;1030396;28;20439;-70
2020/12/27 00:58:31;;;;;;;10.60;5.80;;;;;;;-5.93;99.15;95705.56;1026605;28;20732;-68
2020/12/27 00:59:02;;;;;;;9.27;6.10;;;;;;;-5.98;98.88;95700.13;1025826;28;20023;-72
2020/12/27 00:59:32;;;;;;;11.33;5.97;;;;;;;-5.93;98.89;95702.22;1022826;28;20027;-69
2020/12/27 01:00:04;;;;;;;8.60;5.43;;;;;;;-5.91;98.91;95707.91;1025709;28;20019;-68
2020/12/27 01:00:34;;;;;;;9.43;5.47;;;;;;;-5.90;99.22;95708.72;1027186;28;20429;-70
2020/12/27 01:01:06;;;;;;;9.67;6.00;;;;;;;-5.88;99.12;95704.25;1026605;28;20023;-70
2020/12/27 01:01:37;;;;;;;9.27;5.80;;;;;;;-5.99;98.93;95690.09;1027180;28;20109;-69
2020/12/27 01:02:07;;;;;;;8.50;5.63;;;;;;;-5.88;98.94;95706.81;1030604;28;20026;-68
2020/12/27 01:02:38;;;;;;;9.43;5.90;;;;;;;-5.90;99.01;95696.75;1026652;28;20019;-69
2020/12/27 01:03:08;;;;;;;8.80;5.97;;;;;;;-5.90;99.15;95703.59;1027510;28;20050;-70
2020/12/27 01:03:42;;;;;;;9.63;6.17;;;;;;;-5.89;98.95;95705.22;1026371;28;20034;-71
2020/12/27 01:04:13;;;;;;;10.07;5.78;;;;;;;-5.92;99.13;95699.47;1026721;28;20031;-72
2020/12/27 01:04:43;;;;;;;8.60;5.67;;;;;;;-6.02;98.85;95687.84;1019274;28;20023;-69
2020/12/27 01:05:14;;;;;;;11.70;6.40;;;;;;;-5.93;98.91;95699.66;1020053;28;20169;-72
2020/12/27 01:05:44;;;;;;;10.90;6.13;;;;;;;-5.92;98.98;95696.09;1022904;29;20027;-69
2020/12/27 01:06:22;;;;;;;7.90;5.07;;;;;;;-5.94;98.78;95692.94;1014958;29;20056;-71
2020/12/27 01:06:52;;;;;;;8.73;5.70;;;;;;;-5.98;98.75;95692.47;1018532;29;20028;-72
2020/12/27 01:07:23;;;;;;;10.67;6.03;;;;;;;-6.01;98.57;95686.88;1020359;28;20036;-71
2020/12/27 01:07:53;;;;;;;10.83;6.37;;;;;;;-5.98;98.52;95687.34;1022788;29;20533;-71
2020/12/27 01:08:24;;;;;;;9.00;5.93;;;;;;;-6.03;99.04;95664.06;1022862;29;20028;-68
2020/12/27 01:08:55;;;;;;;9.50;5.87;;;;;;;-6.02;98.88;95673.31;1022033;29;20094;-68
2020/12/27 01:09:25;;;;;;;11.27;6.30;;;;;;;-5.96;98.90;95685.44;1017659;29;20055;-69
2020/12/27 01:09:56;;;;;;;9.07;5.67;;;;;;;-5.98;99.09;95684.81;1019261;29;20032;-69
2020/12/27 01:10:26;;;;;;;11.13;6.37;;;;;;;-6.06;99.14;95672.06;1018830;28;20036;-68
2020/12/27 01:10:59;;;;;;;9.13;5.73;;;;;;;-6.00;99.05;95666.31;1026045;28;20039;-72
2020/12/27 01:11:30;;;;;;;8.10;5.50;;;;;;;-6.02;99.17;95670.75;1022876;29;20031;-71
2020/12/27 01:12:00;;;;;;;11.57;6.23;;;;;;;-6.02;99.34;95673.31;1022475;29;20031;-71
2020/12/27 01:12:31;;;;;;;10.30;6.07;;;;;;;-5.99;99.34;95670.44;1023119;28;20031;-68
2020/12/27 01:13:01;;;;;;;9.03;5.70;;;;;;;-5.99;99.32;95665.34;1026674;28;20030;-68
2020/12/27 01:13:32;;;;;;;10.90;5.93;;;;;;;-6.02;99.19;95662.31;1022812;28;20027;-69
2020/12/27 01:14:03;;;;;;;8.83;6.17;;;;;;;-6.00;99.29;95668.84;1022756;29;20030;-72
2020/12/27 01:14:33;;;;;;;9.20;5.80;;;;;;;-6.00;99.46;95658.66;1018288;29;20075;-70
2020/12/27 01:15:04;;;;;;;9.27;5.53;;;;;;;-6.02;99.32;95654.66;1014806;29;20454;-72
2020/12/27 01:15:34;;;;;;;9.93;5.53;;;;;;;-5.99;99.24;95660.22;1015105;28;20038;-71
2020/12/27 01:16:09;;;;;;;9.77;5.43;;;;;;;-6.09;99.20;95641.72;1025997;28;20035;-70
2020/12/27 01:16:39;;;;;;;11.57;5.90;;;;;;;-6.00;99.36;95648.44;1023822;28;20019;-69
2020/12/27 01:17:10;;;;;;;11.83;5.83;;;;;;;-6.01;99.26;95657.03;1026781;28;20038;-71
2020/12/27 01:17:40;;;;;;;9.93;5.33;;;;;;;-6.06;99.15;95643.16;1022391;28;20039;-69
2020/12/27 01:18:11;;;;;;;9.30;6.13;;;;;;;-6.14;99.30;95626.06;1018582;29;20040;-73
2020/12/27 01:18:44;;;;;;;10.10;5.83;;;;;;;-6.09;99.25;95638.38;1022208;29;20038;-72
2020/12/27 01:19:14;;;;;;;9.23;5.50;;;;;;;-6.00;99.39;95648.44;1018209;29;20461;-69
2020/12/27 01:19:45;;;;;;;8.67;5.13;;;;;;;-5.99;99.35;95654.31;1023024;28;20054;-71
2020/12/27 01:20:15;;;;;;;9.13;5.57;;;;;;;-6.06;99.19;95638.84;1027016;28;20074;-69
2020/12/27 01:20:46;;;;;;;9.93;6.00;;;;;;;-6.02;99.27;95652.88;1026877;28;20640;-70
2020/12/27 01:21:26;;;;;;;8.77;5.60;;;;;;;-6.08;99.47;95640.75;1023503;28;20066;-69
2020/12/27 01:21:57;;;;;;;10.15;5.20;;;;;;;-6.02;99.30;95650.34;1022599;29;20035;-69
2020/12/27 01:22:32;;;;;;;9.10;5.50;;;;;;;-6.08;99.02;95640.75;1019884;29;20379;-69
2020/12/27 01:23:02;;;;;;;9.93;5.68;;;;;;;-6.10;98.98;95632.47;1024058;28;20114;-68
2020/12/27 01:23:33;;;;;;;8.37;5.23;;;;;;;-6.04;99.03;95647.13;1014801;29;20176;-71
2020/12/27 01:24:03;;;;;;;8.47;5.17;;;;;;;-6.06;99.01;95649.06;1022568;29;20030;-71
2020/12/27 01:24:34;;;;;;;10.60;6.07;;;;;;;-6.06;98.68;95646.50;1024224;28;20659;-70
2020/12/27 01:25:04;;;;;;;9.43;5.47;;;;;;;-6.07;99.03;95647.47;1026566;28;20022;-67
2020/12/27 01:25:35;;;;;;;10.13;5.80;;;;;;;-6.03;99.17;95650.50;1026564;28;20038;-69
2020/12/27 01:26:05;;;;;;;8.77;5.63;;;;;;;-6.06;99.05;95646.50;1022781;28;20520;-69
2020/12/27 01:26:36;;;;;;;8.93;5.33;;;;;;;-6.18;99.13;95635.81;1026427;28;20079;-71
2020/12/27 01:27:06;;;;;;;9.23;5.57;;;;;;;-6.07;99.38;95647.47;1030544;28;20039;-70
2020/12/27 01:27:37;;;;;;;10.73;5.83;;;;;;;-6.08;99.43;95645.06;1030489;28;20028;-70
2020/12/27 01:28:07;;;;;;;10.03;6.17;;;;;;;-6.07;99.53;95644.09;1029573;28;20022;-72
2020/12/27 01:28:39;;;;;;;9.77;5.50;;;;;;;-6.08;99.46;95640.75;1022373;28;20020;-69
2020/12/27 01:29:09;;;;;;;9.40;6.07;;;;;;;-6.08;99.49;95645.88;1024844;28;20027;-70
2020/12/27 01:29:40;;;;;;;11.27;5.80;;;;;;;-6.06;99.61;95643.16;1030551;28;20418;-68
2020/12/27 01:30:10;;;;;;;9.40;5.40;;;;;;;-6.07;99.70;95636.44;1030980;28;20025;-71
2020/12/27 01:30:41;;;;;;;8.20;5.47;;;;;;;-6.20;99.19;95619.09;1029610;28;20026;-69
2020/12/27 01:31:11;;;;;;;10.20;5.57;;;;;;;-6.07;99.36;95639.81;1026005;28;20157;-69
2020/12/27 01:31:42;;;;;;;8.97;5.60;;;;;;;-6.09;99.19;95640.94;1018771;29;20027;-69
2020/12/27 01:32:12;;;;;;;10.43;5.57;;;;;;;-6.11;99.06;95635.97;1018438;28;20016;-70
2020/12/27 01:32:43;;;;;;;9.37;5.73;;;;;;;-6.12;99.30;95639.50;1018635;28;20051;-70
2020/12/27 01:33:13;;;;;;;9.20;6.20;;;;;;;-6.12;98.64;95641.25;1022734;28;20027;-70
2020/12/27 01:33:44;;;;;;;12.87;6.10;;;;;;;-6.14;98.79;95640.59;1022616;28;20359;-72
2020/12/27 01:34:14;;;;;;;10.57;6.30;;;;;;;-6.11;99.25;95637.72;1022432;28;20031;-71
2020/12/27 01:34:45;;;;;;;9.07;6.23;;;;;;;-6.13;99.15;95637.91;1024521;28;20037;-71
2020/12/27 01:35:15;;;;;;;10.13;5.40;;;;;;;-6.13;99.28;95637.13;1022657;28;20019;-72
2020/12/27 01:35:46;;;;;;;8.87;5.43;;;;;;;-6.23;99.33;95616.84;1024965;28;20015;-71
2020/12/27 01:36:26;;;;;;;11.93;5.13;;;;;;;-6.13;99.15;95632.81;1018748;29;20572;-71
2020/12/27 01:36:57;;;;;;;;;;;;;;;-6.13;98.99;95624.34;1022824;29;20019;-69
2020/12/27 01:37:27;;;;;;;9.43;5.63;;;;;;;-6.11;99.37;95628.31;1018313;29;19974;-71
2020/12/27 01:37:58;;;;;;;12.07;5.73;;;;;;;-6.16;99.49;95612.69;1023628;28;20050;-69
2020/12/27 01:38:28;;;;;;;8.27;5.10;;;;;;;-6.12;99.59;95613.16;1014674;29;20024;-70
2020/12/27 01:39:03;;;;;;;8.80;5.37;;;;;;;-6.16;99.54;95615.25;1013730;29;20048;-68
2020/12/27 01:39:34;;;;;;;8.70;5.10;;;;;;;-6.23;99.38;95599.00;1014789;29;20039;-69
2020/12/27 01:40:05;;;;;;;9.37;5.73;;;;;;;-6.11;99.50;95618.09;1017971;29;20027;-70
2020/12/27 01:40:35;;;;;;;7.43;5.03;;;;;;;-6.11;99.69;95617.31;1019278;29;20024;-68
2020/12/27 01:41:05;;;;;;;10.00;6.40;;;;;;;-6.09;99.88;95620.50;1022175;28;20520;-71
2020/12/27 01:41:36;;;;;;;10.77;6.17;;;;;;;-6.17;99.71;95611.09;1022573;28;20027;-73
2020/12/27 01:42:06;;;;;;;10.10;5.50;;;;;;;-6.10;99.69;95622.28;1022573;29;20034;-71
2020/12/27 01:42:37;;;;;;;9.73;5.63;;;;;;;-6.12;99.95;95613.16;1022087;29;20118;-69
2020/12/27 01:43:07;;;;;;;10.27;5.30;;;;;;;-6.09;99.68;95623.84;1022238;28;20026;-69
2020/12/27 01:43:38;;;;;;;9.57;5.90;;;;;;;-6.11;99.63;95620.66;1022558;28;20719;-70
2020/12/27 01:44:12;;;;;;;8.53;5.67;;;;;;;-6.12;99.33;95624.16;1022306;28;20038;-73
2020/12/27 01:44:43;;;;;;;9.18;5.10;;;;;;;-6.11;99.54;95620.66;1019715;28;20042;-72
2020/12/27 01:45:14;;;;;;;8.87;5.20;;;;;;;-6.10;99.55;95622.28;1026363;28;20077;-71
2020/12/27 01:45:44;;;;;;;8.10;4.90;;;;;;;-6.10;99.69;95627.38;1027146;28;20703;-68
2020/12/27 01:46:15;;;;;;;6.77;4.70;;;;;;;-6.17;99.34;95609.34;1030593;28;20030;-70
2020/12/27 01:46:46;;;;;;;9.90;5.83;;;;;;;-6.19;99.33;95605.34;1029210;28;20053;-71
2020/12/27 01:47:19;;;;;;;7.97;5.13;;;;;;;-6.10;99.42;95611.22;1022353;29;20027;-70
2020/12/27 01:47:51;;;;;;;7.72;5.43;;;;;;;-6.09;99.58;95613.63;1014305;29;20035;-69
2020/12/27 01:48:22;;;;;;;9.15;5.43;;;;;;;-6.10;99.26;95603.56;1019907;28;20032;-72
2020/12/27 01:48:52;;;;;;;9.55;6.15;;;;;;;-6.10;99.54;95604.41;1018352;29;20102;-68
2020/12/27 01:49:23;;;;;;;6.83;4.93;;;;;;;-6.07;99.40;95605.81;1025984;28;20826;-70
2020/12/27 01:49:53;;;;;;;8.13;5.23;;;;;;;-6.18;99.48;95586.50;1029997;28;20030;-72
2020/12/27 01:50:24;;;;;;;10.07;5.10;;;;;;;-6.07;99.71;95601.53;1022360;29;20073;-72
2020/12/27 01:50:54;;;;;;;10.00;5.67;;;;;;;-6.10;99.45;95601.84;1010699;29;20089;-69
2020/12/27 01:51:27;;;;;;;8.23;5.17;;;;;;;-6.09;99.36;95603.44;1026210;28;20457;-69
2020/12/27 01:51:58;;;;;;;8.40;5.35;;;;;;;-6.10;99.43;95598.47;1022922;28;20046;-71
2020/12/27 01:52:28;;;;;;;8.37;5.20;;;;;;;-6.09;99.57;95603.44;1018986;29;20371;-68
2020/12/27 01:52:59;;;;;;;8.27;5.60;;;;;;;-6.09;99.37;95607.75;1021549;28;20026;-68
2020/12/27 01:53:30;;;;;;;10.57;5.60;;;;;;;-6.09;99.54;95603.44;1018281;29;20066;-69
2020/12/27 01:54:00;;;;;;;10.00;5.63;;;;;;;-6.18;99.42;95592.41;1018589;29;20027;-69
2020/12/27 01:54:31;;;;;;;11.17;5.80;;;;;;;-6.10;99.23;95601.84;1024433;28;20101;-70
2020/12/27 01:55:01;;;;;;;8.13;5.10;;;;;;;-6.13;99.13;95591.94;1025441;28;20461;-67
2020/12/27 01:55:32;;;;;;;8.83;5.13;;;;;;;-6.11;99.13;95591.78;1022373;29;20089;-69
2020/12/27 01:56:02;;;;;;;8.73;5.20;;;;;;;-6.20;99.17;95578.25;1022280;29;20533;-71
2020/12/27 01:56:42;;;;;;;9.57;5.53;;;;;;;-6.13;99.24;95591.16;1022540;29;20061;-69
2020/12/27 01:57:15;;;;;;;8.60;5.13;;;;;;;-6.15;99.16;95588.75;1015844;29;20523;-72
2020/12/27 01:57:51;;;;;;;8.32;5.25;;;;;;;-6.12;99.30;95588.41;1014187;29;20482;-68
2020/12/27 01:58:22;;;;;;;8.65;5.47;;;;;;;-6.15;99.37;95588.75;1016625;29;20039;-68
2020/12/27 01:58:53;;;;;;;8.77;5.10;;;;;;;-6.16;98.93;95597.38;1017895;29;20023;-70
2020/12/27 01:59:27;;;;;;;7.55;4.85;;;;;;;-6.18;98.82;95586.50;1018439;29;20127;-73
2020/12/27 01:59:58;;;;;;;7.85;5.30;;;;;;;-6.21;98.84;95581.72;1014631;29;20016;-69
2020/12/27 02:00:28;;;;;;;9.40;5.50;;;;;;;-6.13;99.16;95586.06;1025417;28;20031;-72
2020/12/27 02:00:59;;;;;;;10.40;5.73;;;;;;;-6.20;99.44;95578.25;1027044;28;20412;-70
2020/12/27 02:01:30;;;;;;;7.90;4.93;;;;;;;-6.26;99.05;95571.22;1019816;28;20058;-69
2020/12/27 02:02:01;;;;;;;7.95;5.38;;;;;;;-6.21;99.19;95574.88;1019398;28;20023;-70
2020/12/27 02:03:01;;;;;;;8.47;5.60;;;;;;;-6.16;98.94;95587.16;1018850;29;20086;-70
2020/12/27 02:03:31;;;;;;;7.82;4.88;;;;;;;-6.16;98.92;95587.16;1018825;29;20035;-69
2020/12/27 02:04:03;;;;;;;7.87;5.00;;;;;;;-6.15;99.09;95582.84;1023084;28;20647;-69
2020/12/27 02:04:33;;;;;;;10.50;5.10;;;;;;;-6.23;99.44;95568.34;1023956;28;20512;-70
2020/12/27 02:05:04;;;;;;;11.00;5.10;;;;;;;-6.15;99.31;95582.84;1026401;28;20027;-69
2020/12/27 02:05:34;;;;;;;9.27;5.73;;;;;;;-6.17;99.18;95575.34;1030250;28;20030;-72
2020/12/27 02:06:05;;;;;;;8.20;5.40;;;;;;;-6.16;99.21;95576.94;1022157;29;20031;-70
2020/12/27 02:06:35;;;;;;;10.17;5.27;;;;;;;-6.25;99.28;95562.59;1022080;28;20059;-71
2020/12/27 02:07:07;;;;;;;8.03;5.53;;;;;;;-6.20;98.90;95570.56;1018498;29;20048;-70
2020/12/27 02:07:37;;;;;;;7.55;4.85;;;;;;;-6.23;99.00;95563.25;1026575;28;20034;-70
2020/12/27 02:08:08;;;;;;;8.93;5.47;;;;;;;-6.14;99.19;95575.00;1030415;28;20590;-68
2020/12/27 02:08:38;;;;;;;7.13;4.73;;;;;;;-6.15;99.01;95565.75;1029970;28;20050;-70
2020/12/27 02:09:11;;;;;;;7.37;5.10;;;;;;;-6.26;98.97;95551.59;1022588;28;20481;-69
2020/12/27 02:09:41;;;;;;;9.25;5.10;;;;;;;-6.14;98.88;95575.00;1022644;28;20035;-68
2020/12/27 02:10:12;;;;;;;8.37;4.80;;;;;;;-6.24;98.75;95548.88;1026454;28;20035;-70
2020/12/27 02:10:42;;;;;;;8.23;5.53;;;;;;;-6.20;98.92;95555.25;1022277;29;20038;-70
2020/12/27 02:11:13;;;;;;;10.03;5.67;;;;;;;-6.16;99.03;95561.63;1017212;29;20042;-71
2020/12/27 02:11:43;;;;;;;6.47;4.43;;;;;;;-6.14;98.74;95562.25;1022080;29;20086;-69
2020/12/27 02:12:13;;;;;;;8.57;5.47;;;;;;;-6.18;98.94;95551.56;1022326;28;20035;-69
2020/12/27 02:12:44;;;;;;;7.23;4.63;;;;;;;-6.15;98.95;95560.66;1026369;28;20034;-70
2020/12/27 02:13:15;;;;;;;7.70;5.10;;;;;;;-6.13;98.78;95551.09;1032318;28;20026;-68
2020/12/27 02:13:52;;;;;;;8.97;5.47;;;;;;;-6.18;98.82;95546.47;1030288;28;20026;-71
2020/12/27 02:14:22;;;;;;;7.22;5.03;;;;;;;-6.14;99.00;95546.94;1023209;28;20035;-68
2020/12/27 02:14:53;;;;;;;9.03;5.87;;;;;;;-6.21;99.07;95534.00;1026346;28;20059;-71
2020/12/27 02:15:24;;;;;;;9.77;5.43;;;;;;;-6.14;98.85;95539.25;1019653;29;20032;-71
2020/12/27 02:15:54;;;;;;;12.10;6.00;;;;;;;-6.13;98.86;95545.97;1022561;29;20059;-68
2020/12/27 02:16:26;;;;;;;9.17;5.10;;;;;;;-6.16;98.79;95536.09;1016408;29;20521;-70
2020/12/27 02:16:56;;;;;;;8.10;5.32;;;;;;;-6.12;98.77;95541.66;1015936;29;20080;-70
2020/12/27 02:17:27;;;;;;;7.50;5.10;;;;;;;-6.19;98.63;95532.09;1018756;29;20126;-71
2020/12/27 02:17:57;;;;;;;8.70;5.33;;;;;;;-6.13;98.35;95540.09;1018968;28;20032;-69
2020/12/27 02:18:28;;;;;;;11.83;5.67;;;;;;;-6.14;98.48;95539.25;1022288;28;20039;-68
2020/12/27 02:19:02;;;;;;;8.07;5.17;;;;;;;-6.13;98.17;95538.31;1021326;28;20612;-69
2020/12/27 02:19:33;;;;;;;7.53;5.38;;;;;;;-6.21;98.37;95528.13;1022398;29;20067;-71
2020/12/27 02:20:04;;;;;;;8.30;5.60;;;;;;;-6.12;98.12;95539.91;1019060;29;20094;-69
2020/12/27 02:20:35;;;;;;;11.45;5.60;;;;;;;-6.22;98.18;95523.97;1018427;29;20131;-69
2020/12/27 02:21:05;;;;;;;8.83;6.03;;;;;;;-6.12;98.55;95534.81;1015103;29;20539;-69
2020/12/27 02:21:36;;;;;;;10.37;5.67;;;;;;;-6.12;98.35;95532.25;1018801;29;20032;-70
2020/12/27 02:22:06;;;;;;;7.70;4.83;;;;;;;-6.11;98.28;95533.84;1018601;28;20091;-70
2020/12/27 02:22:38;;;;;;;10.07;5.50;;;;;;;-6.12;98.19;95532.25;1022273;28;20019;-70
2020/12/27 02:23:12;;;;;;;8.80;5.20;;;;;;;-6.12;98.29;95524.59;1018038;29;20440;-68
2020/12/27 02:23:42;;;;;;;8.45;4.82;;;;;;;-6.15;98.15;95521.56;1018361;29;20023;-71
2020/12/27 02:24:12;;;;;;;12.97;5.27;;;;;;;-6.10;98.35;95530.34;1018545;29;20028;-71
2020/12/27 02:24:43;;;;;;;7.10;4.90;;;;;;;-6.12;97.86;95531.47;1018873;29;20039;-72
2020/12/27 02:25:14;;;;;;;8.90;5.27;;;;;;;-6.10;98.09;95529.50;1019114;28;20032;-71
2020/12/27 02:25:45;;;;;;;9.27;5.25;;;;;;;-6.08;97.88;95533.50;1022416;28;20110;-71
2020/12/27 02:26:15;;;;;;;8.23;4.97;;;;;;;-6.10;97.92;95530.34;1026537;28;20679;-70